sensor_id;sensor_type;location;lat;lon;timestamp;pressure;altitude;pressure_sealevel;temperature;humidity
43804;BME280;29430;52.924;-2.388;2023-03-12T00:04:03;97982.81;;;3.51;100.00
43804;BME280;29430;52.924;-2.388;2023-03-12T00:08:55;97980.91;;;3.58;100.00
43804;BME280;29430;52.924;-2.388;2023-03-12T00:13:50;97976.31;;;3.66;100.00
43804;BME280;29430;52.924;-2.388;2023-03-12T00:18:43;97991.31;;;3.73;100.00
43804;BME280;29430;52.924;-2.388;2023-03-12T00:23:37;97978.09;;;3.79;100.00
43804;BME280;29430;52.924;-2.388;2023-03-12T00:28:30;97970.00;;;3.85;100.00
43804;BME280;29430;52.924;-2.388;2023-03-12T00:33:22;97968.31;;;3.91;100.00
43804;BME280;29430;52.924;-2.388;2023-03-12T00:38:13;97963.13;;;3.96;100.00
43804;BME280;29430;52.924;-2.388;2023-03-12T00:43:05;97977.75;;;4.00;100.00
43804;BME280;29430;52.924;-2.388;2023-03-12T00:47:56;97963.06;;;4.03;100.00
43804;BME280;29430;52.924;-2.388;2023-03-12T00:52:48;97974.78;;;4.08;100.00
43804;BME280;29430;52.924;-2.388;2023-03-12T00:57:40;97967.09;;;4.12;100.00
43804;BME280;29430;52.924;-2.388;2023-03-12T01:02:31;97974.13;;;4.13;100.00
43804;BME280;29430;52.924;-2.388;2023-03-12T01:07:23;97968.53;;;4.15;100.00
43804;BME280;29430;52.924;-2.388;2023-03-12T01:12:15;97967.28;;;4.17;100.00
43804;BME280;29430;52.924;-2.388;2023-03-12T01:17:07;97967.06;;;4.19;100.00
43804;BME280;29430;52.924;-2.388;2023-03-12T01:21:59;97969.75;;;4.19;100.00
43804;BME280;29430;52.924;-2.388;2023-03-12T01:26:50;97974.06;;;4.20;100.00
43804;BME280;29430;52.924;-2.388;2023-03-12T01:31:42;97968.91;;;4.18;100.00
43804;BME280;29430;52.924;-2.388;2023-03-12T01:36:34;97969.97;;;4.17;100.00
43804;BME280;29430;52.924;-2.388;2023-03-12T01:41:27;97972.44;;;4.19;100.00
43804;BME280;29430;52.924;-2.388;2023-03-12T01:51:16;97971.16;;;4.21;100.00
43804;BME280;29430;52.924;-2.388;2023-03-12T01:56:09;97979.81;;;4.23;100.00
43804;BME280;29430;52.924;-2.388;2023-03-12T02:01:02;97966.56;;;4.28;100.00
43804;BME280;29430;52.924;-2.388;2023-03-12T02:06:01;97968.59;;;4.33;100.00
43804;BME280;29430;52.924;-2.388;2023-03-12T02:10:53;97972.47;;;4.37;100.00
43804;BME280;29430;52.924;-2.388;2023-03-12T02:15:45;97973.44;;;4.43;100.00
43804;BME280;29430;52.924;-2.388;2023-03-12T02:25:57;97978.31;;;4.53;100.00
43804;BME280;29430;52.924;-2.388;2023-03-12T02:30:51;97988.38;;;4.57;100.00
43804;BME280;29430;52.924;-2.388;2023-03-12T02:35:47;98004.66;;;4.62;100.00
43804;BME280;29430;52.924;-2.388;2023-03-12T02:40:43;98006.81;;;4.72;100.00
43804;BME280;29430;52.924;-2.388;2023-03-12T02:45:37;97996.16;;;4.84;100.00
43804;BME280;29430;52.924;-2.388;2023-03-12T02:50:29;97988.41;;;4.94;100.00
43804;BME280;29430;52.924;-2.388;2023-03-12T02:55:21;97979.22;;;5.02;100.00
43804;BME280;29430;52.924;-2.388;2023-03-12T03:00:13;97979.72;;;5.11;100.00
43804;BME280;29430;52.924;-2.388;2023-03-12T03:05:06;97971.59;;;5.17;100.00
43804;BME280;29430;52.924;-2.388;2023-03-12T03:09:57;97991.38;;;5.23;100.00
43804;BME280;29430;52.924;-2.388;2023-03-12T03:14:54;98008.09;;;5.25;100.00
43804;BME280;29430;52.924;-2.388;2023-03-12T03:19:46;97999.44;;;5.23;100.00
43804;BME280;29430;52.924;-2.388;2023-03-12T03:24:37;97996.16;;;5.21;100.00
43804;BME280;29430;52.924;-2.388;2023-03-12T03:29:29;98009.00;;;5.19;100.00
43804;BME280;29430;52.924;-2.388;2023-03-12T03:34:21;98012.72;;;5.18;100.00
43804;BME280;29430;52.924;-2.388;2023-03-12T03:39:12;98014.84;;;5.16;100.00
43804;BME280;29430;52.924;-2.388;2023-03-12T03:44:04;98002.78;;;5.18;100.00
43804;BME280;29430;52.924;-2.388;2023-03-12T03:48:58;98016.84;;;5.20;100.00
43804;BME280;29430;52.924;-2.388;2023-03-12T03:53:49;98020.47;;;5.26;100.00
43804;BME280;29430;52.924;-2.388;2023-03-12T03:58:41;98020.63;;;5.31;100.00
43804;BME280;29430;52.924;-2.388;2023-03-12T04:03:33;98031.53;;;5.36;100.00
43804;BME280;29430;52.924;-2.388;2023-03-12T04:08:26;98027.72;;;5.44;100.00
43804;BME280;29430;52.924;-2.388;2023-03-12T04:13:18;98022.69;;;5.48;100.00
43804;BME280;29430;52.924;-2.388;2023-03-12T04:18:09;98036.34;;;5.46;100.00
43804;BME280;29430;52.924;-2.388;2023-03-12T04:23:01;98051.22;;;5.49;100.00
43804;BME280;29430;52.924;-2.388;2023-03-12T04:27:53;98047.25;;;5.51;100.00
43804;BME280;29430;52.924;-2.388;2023-03-12T04:32:44;98047.03;;;5.53;100.00
43804;BME280;29430;52.924;-2.388;2023-03-12T04:37:36;98061.53;;;5.52;100.00
43804;BME280;29430;52.924;-2.388;2023-03-12T04:42:28;98074.38;;;5.50;100.00
43804;BME280;29430;52.924;-2.388;2023-03-12T04:47:19;98062.00;;;5.49;100.00
43804;BME280;29430;52.924;-2.388;2023-03-12T04:52:11;98064.44;;;5.50;100.00
43804;BME280;29430;52.924;-2.388;2023-03-12T04:57:03;98069.00;;;5.50;100.00
43804;BME280;29430;52.924;-2.388;2023-03-12T05:01:54;98077.22;;;5.55;100.00
43804;BME280;29430;52.924;-2.388;2023-03-12T05:06:46;98076.53;;;5.60;100.00
43804;BME280;29430;52.924;-2.388;2023-03-12T05:11:38;98067.78;;;5.64;100.00
43804;BME280;29430;52.924;-2.388;2023-03-12T05:16:30;98075.19;;;5.69;100.00
43804;BME280;29430;52.924;-2.388;2023-03-12T05:21:22;98068.28;;;5.73;100.00
43804;BME280;29430;52.924;-2.388;2023-03-12T05:26:24;98063.88;;;5.79;100.00
43804;BME280;29430;52.924;-2.388;2023-03-12T05:31:16;98088.44;;;5.82;100.00
43804;BME280;29430;52.924;-2.388;2023-03-12T05:36:08;98086.94;;;5.86;100.00
43804;BME280;29430;52.924;-2.388;2023-03-12T05:41:02;98079.22;;;5.90;100.00
43804;BME280;29430;52.924;-2.388;2023-03-12T05:46:01;98085.00;;;5.94;100.00
43804;BME280;29430;52.924;-2.388;2023-03-12T05:50:53;98083.69;;;5.96;100.00
43804;BME280;29430;52.924;-2.388;2023-03-12T05:55:44;98095.91;;;5.99;100.00
43804;BME280;29430;52.924;-2.388;2023-03-12T06:00:36;98097.34;;;6.01;100.00
43804;BME280;29430;52.924;-2.388;2023-03-12T06:05:30;98104.81;;;5.99;100.00
43804;BME280;29430;52.924;-2.388;2023-03-12T06:10:21;98107.72;;;5.98;100.00
43804;BME280;29430;52.924;-2.388;2023-03-12T06:15:14;98119.13;;;5.93;100.00
43804;BME280;29430;52.924;-2.388;2023-03-12T06:20:07;98104.53;;;5.89;100.00
43804;BME280;29430;52.924;-2.388;2023-03-12T06:24:59;98108.94;;;5.83;100.00
43804;BME280;29430;52.924;-2.388;2023-03-12T06:29:50;98102.56;;;5.78;100.00
43804;BME280;29430;52.924;-2.388;2023-03-12T06:34:42;98090.25;;;5.70;100.00
43804;BME280;29430;52.924;-2.388;2023-03-12T06:39:34;98079.59;;;5.63;100.00
43804;BME280;29430;52.924;-2.388;2023-03-12T06:44:26;98091.63;;;5.61;100.00
43804;BME280;29430;52.924;-2.388;2023-03-12T06:49:17;98101.78;;;5.59;100.00
43804;BME280;29430;52.924;-2.388;2023-03-12T06:54:09;98103.88;;;5.56;100.00
43804;BME280;29430;52.924;-2.388;2023-03-12T06:59:01;98113.81;;;5.56;100.00
43804;BME280;29430;52.924;-2.388;2023-03-12T07:03:52;98133.84;;;5.60;100.00
43804;BME280;29430;52.924;-2.388;2023-03-12T07:08:45;98134.19;;;5.64;100.00
43804;BME280;29430;52.924;-2.388;2023-03-12T07:13:37;98158.56;;;5.69;100.00
43804;BME280;29430;52.924;-2.388;2023-03-12T07:18:29;98172.16;;;5.74;100.00
43804;BME280;29430;52.924;-2.388;2023-03-12T07:23:21;98151.16;;;5.83;100.00
43804;BME280;29430;52.924;-2.388;2023-03-12T07:28:13;98146.66;;;5.95;100.00
43804;BME280;29430;52.924;-2.388;2023-03-12T07:33:10;98130.81;;;6.05;100.00
43804;BME280;29430;52.924;-2.388;2023-03-12T07:38:02;98135.56;;;6.22;100.00
43804;BME280;29430;52.924;-2.388;2023-03-12T07:42:54;98127.47;;;6.64;100.00
43804;BME280;29430;52.924;-2.388;2023-03-12T07:47:46;98116.50;;;7.25;100.00
43804;BME280;29430;52.924;-2.388;2023-03-12T07:52:38;98122.72;;;7.89;100.00
43804;BME280;29430;52.924;-2.388;2023-03-12T07:57:30;98115.31;;;8.42;100.00
43804;BME280;29430;52.924;-2.388;2023-03-12T08:02:22;98103.66;;;8.88;100.00
43804;BME280;29430;52.924;-2.388;2023-03-12T08:07:14;98088.97;;;9.18;100.00
43804;BME280;29430;52.924;-2.388;2023-03-12T08:12:06;98093.47;;;9.12;99.72
43804;BME280;29430;52.924;-2.388;2023-03-12T08:16:58;98091.28;;;8.92;99.77
43804;BME280;29430;52.924;-2.388;2023-03-12T08:21:50;98088.34;;;8.76;100.00
43804;BME280;29430;52.924;-2.388;2023-03-12T08:26:43;98087.59;;;8.64;100.00
43804;BME280;29430;52.924;-2.388;2023-03-12T08:31:35;98088.34;;;8.59;100.00
43804;BME280;29430;52.924;-2.388;2023-03-12T08:36:27;98118.00;;;8.54;100.00
43804;BME280;29430;52.924;-2.388;2023-03-12T08:41:19;98122.50;;;8.83;100.00
43804;BME280;29430;52.924;-2.388;2023-03-12T08:46:11;98118.44;;;9.36;99.96
43804;BME280;29430;52.924;-2.388;2023-03-12T08:51:03;98119.53;;;9.79;95.18
43804;BME280;29430;52.924;-2.388;2023-03-12T08:55:57;98116.38;;;9.88;94.63
43804;BME280;29430;52.924;-2.388;2023-03-12T09:00:50;98103.97;;;9.92;92.78
43804;BME280;29430;52.924;-2.388;2023-03-12T09:05:42;98094.50;;;9.94;92.50
43804;BME280;29430;52.924;-2.388;2023-03-12T09:10:35;98091.19;;;9.87;92.90
43804;BME280;29430;52.924;-2.388;2023-03-12T09:15:27;98105.66;;;9.76;93.73
43804;BME280;29430;52.924;-2.388;2023-03-12T09:20:19;98092.47;;;9.79;95.12
43804;BME280;29430;52.924;-2.388;2023-03-12T09:25:11;98075.97;;;9.81;94.52
43804;BME280;29430;52.924;-2.388;2023-03-12T09:30:05;98067.59;;;9.82;95.01
43804;BME280;29430;52.924;-2.388;2023-03-12T09:34:57;98058.50;;;10.21;94.56
43804;BME280;29430;52.924;-2.388;2023-03-12T09:39:49;98077.44;;;10.75;92.22
43804;BME280;29430;52.924;-2.388;2023-03-12T09:44:44;98071.94;;;11.08;90.25
43804;BME280;29430;52.924;-2.388;2023-03-12T09:49:50;98050.19;;;11.51;88.94
43804;BME280;29430;52.924;-2.388;2023-03-12T09:54:55;98059.56;;;11.91;85.72
43804;BME280;29430;52.924;-2.388;2023-03-12T09:59:50;98062.88;;;11.98;85.34
43804;BME280;29430;52.924;-2.388;2023-03-12T10:04:54;98061.81;;;11.99;84.16
43804;BME280;29430;52.924;-2.388;2023-03-12T10:25:17;98087.41;;;13.06;80.73
43804;BME280;29430;52.924;-2.388;2023-03-12T10:30:20;98067.75;;;13.45;80.05
43804;BME280;29430;52.924;-2.388;2023-03-12T10:35:20;98069.28;;;13.77;76.70
43804;BME280;29430;52.924;-2.388;2023-03-12T10:40:25;98071.53;;;14.14;76.75
43804;BME280;29430;52.924;-2.388;2023-03-12T10:50:40;98065.72;;;14.26;72.20
43804;BME280;29430;52.924;-2.388;2023-03-12T10:55:31;98061.72;;;14.13;73.08
43804;BME280;29430;52.924;-2.388;2023-03-12T11:00:27;98061.25;;;14.41;74.00
43804;BME280;29430;52.924;-2.388;2023-03-12T11:05:27;98048.28;;;14.67;71.94
43804;BME280;29430;52.924;-2.388;2023-03-12T11:20:26;98051.16;;;15.10;68.38
43804;BME280;29430;52.924;-2.388;2023-03-12T11:25:26;98041.63;;;15.32;68.29
43804;BME280;29430;52.924;-2.388;2023-03-12T11:30:23;98057.66;;;15.63;68.13
43804;BME280;29430;52.924;-2.388;2023-03-12T11:35:23;98056.84;;;15.86;67.54
43804;BME280;29430;52.924;-2.388;2023-03-12T11:40:51;98049.06;;;15.74;64.39
43804;BME280;29430;52.924;-2.388;2023-03-12T11:46:07;98027.47;;;15.30;64.65
43804;BME280;29430;52.924;-2.388;2023-03-12T12:07:11;98022.03;;;15.00;63.33
43804;BME280;29430;52.924;-2.388;2023-03-12T12:12:53;98023.03;;;15.10;63.98
43804;BME280;29430;52.924;-2.388;2023-03-12T12:23:38;98013.75;;;15.11;63.45
43804;BME280;29430;52.924;-2.388;2023-03-12T12:38:54;98016.75;;;14.45;64.55
43804;BME280;29430;52.924;-2.388;2023-03-12T12:44:08;98001.81;;;14.38;65.51
43804;BME280;29430;52.924;-2.388;2023-03-12T12:49:20;97992.34;;;14.30;65.44
43804;BME280;29430;52.924;-2.388;2023-03-12T13:04:33;97980.44;;;13.81;65.87
43804;BME280;29430;52.924;-2.388;2023-03-12T13:09:46;97975.53;;;13.73;67.20
43804;BME280;29430;52.924;-2.388;2023-03-12T13:14:41;97984.03;;;13.66;67.69
43804;BME280;29430;52.924;-2.388;2023-03-12T13:19:38;97974.22;;;13.65;68.36
43804;BME280;29430;52.924;-2.388;2023-03-12T13:29:56;97958.72;;;13.60;70.24
43804;BME280;29430;52.924;-2.388;2023-03-12T13:34:48;97937.22;;;13.59;69.56
43804;BME280;29430;52.924;-2.388;2023-03-12T13:39:43;97927.16;;;13.59;69.47
43804;BME280;29430;52.924;-2.388;2023-03-12T13:44:38;97929.38;;;13.52;69.65
43804;BME280;29430;52.924;-2.388;2023-03-12T13:49:40;97932.69;;;13.39;68.23
43804;BME280;29430;52.924;-2.388;2023-03-12T13:54:34;97912.31;;;13.26;68.51
43804;BME280;29430;52.924;-2.388;2023-03-12T13:59:32;97903.91;;;13.17;68.84
43804;BME280;29430;52.924;-2.388;2023-03-12T14:04:29;97900.69;;;13.05;69.35
43804;BME280;29430;52.924;-2.388;2023-03-12T14:09:48;97907.25;;;12.99;70.82
43804;BME280;29430;52.924;-2.388;2023-03-12T14:15:01;97892.31;;;12.91;71.08
43804;BME280;29430;52.924;-2.388;2023-03-12T14:24:58;97890.19;;;12.83;73.56
43804;BME280;29430;52.924;-2.388;2023-03-12T14:29:56;97889.94;;;12.79;73.20
43804;BME280;29430;52.924;-2.388;2023-03-12T14:34:56;97891.03;;;12.73;74.32
43804;BME280;29430;52.924;-2.388;2023-03-12T14:39:51;97879.88;;;12.69;74.46
43804;BME280;29430;52.924;-2.388;2023-03-12T14:45:03;97862.50;;;12.60;74.31
43804;BME280;29430;52.924;-2.388;2023-03-12T14:50:00;97859.81;;;12.50;75.83
43804;BME280;29430;52.924;-2.388;2023-03-12T14:54:58;97844.09;;;12.36;76.46
43804;BME280;29430;52.924;-2.388;2023-03-12T14:59:52;97845.47;;;12.29;77.05
43804;BME280;29430;52.924;-2.388;2023-03-12T15:04:44;97825.91;;;12.22;77.22
43804;BME280;29430;52.924;-2.388;2023-03-12T15:09:41;97815.59;;;12.13;77.79
43804;BME280;29430;52.924;-2.388;2023-03-12T15:14:42;97815.59;;;12.03;79.74
43804;BME280;29430;52.924;-2.388;2023-03-12T15:19:36;97796.03;;;11.91;80.69
43804;BME280;29430;52.924;-2.388;2023-03-12T15:24:36;97794.97;;;11.76;82.88
43804;BME280;29430;52.924;-2.388;2023-03-12T15:29:29;97811.25;;;11.66;83.84
43804;BME280;29430;52.924;-2.388;2023-03-12T15:34:34;97796.88;;;11.55;84.58
43804;BME280;29430;52.924;-2.388;2023-03-12T15:39:31;97793.63;;;11.48;84.76
43804;BME280;29430;52.924;-2.388;2023-03-12T15:44:26;97784.66;;;11.42;84.75
43804;BME280;29430;52.924;-2.388;2023-03-12T15:49:29;97759.41;;;11.37;84.54
43804;BME280;29430;52.924;-2.388;2023-03-12T15:54:24;97742.03;;;11.27;84.64
43804;BME280;29430;52.924;-2.388;2023-03-12T15:59:35;97731.16;;;11.27;84.92
43804;BME280;29430;52.924;-2.388;2023-03-12T16:04:27;97700.53;;;11.22;85.61
43804;BME280;29430;52.924;-2.388;2023-03-12T16:09:20;97692.94;;;11.19;86.09
43804;BME280;29430;52.924;-2.388;2023-03-12T16:19:15;97675.28;;;11.11;86.59
43804;BME280;29430;52.924;-2.388;2023-03-12T16:24:08;97660.38;;;11.03;88.11
43804;BME280;29430;52.924;-2.388;2023-03-12T16:29:00;97653.59;;;11.01;87.81
43804;BME280;29430;52.924;-2.388;2023-03-12T16:33:51;97637.31;;;11.01;88.44
43804;BME280;29430;52.924;-2.388;2023-03-12T16:38:44;97642.47;;;10.97;88.45
43804;BME280;29430;52.924;-2.388;2023-03-12T16:43:36;97631.91;;;10.96;88.96
43804;BME280;29430;52.924;-2.388;2023-03-12T16:48:28;97622.66;;;10.91;90.09
43804;BME280;29430;52.924;-2.388;2023-03-12T16:53:20;97621.84;;;10.91;90.13
43804;BME280;29430;52.924;-2.388;2023-03-12T16:58:14;97624.56;;;10.91;90.74
43804;BME280;29430;52.924;-2.388;2023-03-12T17:03:06;97618.06;;;10.87;90.87
43804;BME280;29430;52.924;-2.388;2023-03-12T17:07:58;97591.22;;;10.85;91.34
43804;BME280;29430;52.924;-2.388;2023-03-12T17:12:51;97606.66;;;10.85;91.55
43804;BME280;29430;52.924;-2.388;2023-03-12T17:17:43;97589.84;;;10.83;90.29
43804;BME280;29430;52.924;-2.388;2023-03-12T17:22:35;97579.56;;;10.85;91.37
43804;BME280;29430;52.924;-2.388;2023-03-12T17:27:27;97569.22;;;10.92;90.58
43804;BME280;29430;52.924;-2.388;2023-03-12T17:32:18;97555.13;;;10.90;90.42
43804;BME280;29430;52.924;-2.388;2023-03-12T17:37:10;97535.63;;;10.88;90.21
43804;BME280;29430;52.924;-2.388;2023-03-12T17:42:02;97527.75;;;10.86;90.70
43804;BME280;29430;52.924;-2.388;2023-03-12T17:46:54;97527.47;;;10.88;90.72
43804;BME280;29430;52.924;-2.388;2023-03-12T17:51:50;97515.03;;;10.82;91.83
43804;BME280;29430;52.924;-2.388;2023-03-12T17:56:41;97496.84;;;10.77;93.17
43804;BME280;29430;52.924;-2.388;2023-03-12T18:01:33;97495.75;;;10.73;94.33
43804;BME280;29430;52.924;-2.388;2023-03-12T18:06:25;97489.25;;;10.69;94.62
43804;BME280;29430;52.924;-2.388;2023-03-12T18:11:16;97471.94;;;10.65;95.27
43804;BME280;29430;52.924;-2.388;2023-03-12T18:16:09;97447.81;;;10.58;95.73
43804;BME280;29430;52.924;-2.388;2023-03-12T18:21:00;97436.44;;;10.56;96.94
43804;BME280;29430;52.924;-2.388;2023-03-12T18:25:52;97426.97;;;10.53;96.34
43804;BME280;29430;52.924;-2.388;2023-03-12T18:30:45;97418.56;;;10.50;96.84
43804;BME280;29430;52.924;-2.388;2023-03-12T18:35:37;97410.97;;;10.42;97.42
43804;BME280;29430;52.924;-2.388;2023-03-12T18:40:29;97410.16;;;10.36;98.71
43804;BME280;29430;52.924;-2.388;2023-03-12T18:45:23;97397.97;;;10.28;98.92
43804;BME280;29430;52.924;-2.388;2023-03-12T18:50:15;97379.84;;;10.18;100.00
43804;BME280;29430;52.924;-2.388;2023-03-12T18:55:07;97371.72;;;10.13;100.00
43804;BME280;29430;52.924;-2.388;2023-03-12T19:00:05;97352.75;;;10.03;100.00
43804;BME280;29430;52.924;-2.388;2023-03-12T19:05:01;97326.78;;;9.97;100.00
43804;BME280;29430;52.924;-2.388;2023-03-12T19:09:54;97334.34;;;9.90;100.00
43804;BME280;29430;52.924;-2.388;2023-03-12T19:14:45;97316.50;;;9.83;100.00
43804;BME280;29430;52.924;-2.388;2023-03-12T19:19:37;97308.09;;;9.80;100.00
43804;BME280;29430;52.924;-2.388;2023-03-12T19:24:29;97285.09;;;9.77;100.00
43804;BME280;29430;52.924;-2.388;2023-03-12T19:29:21;97277.78;;;9.73;100.00
43804;BME280;29430;52.924;-2.388;2023-03-12T19:34:12;97272.91;;;9.70;100.00
43804;BME280;29430;52.924;-2.388;2023-03-12T19:39:04;97257.22;;;9.66;100.00
43804;BME280;29430;52.924;-2.388;2023-03-12T19:44:11;97240.44;;;9.70;100.00
43804;BME280;29430;52.924;-2.388;2023-03-12T19:49:02;97229.63;;;9.70;100.00
43804;BME280;29430;52.924;-2.388;2023-03-12T19:53:54;97220.16;;;9.67;100.00
43804;BME280;29430;52.924;-2.388;2023-03-12T19:58:46;97195.81;;;9.67;100.00
43804;BME280;29430;52.924;-2.388;2023-03-12T20:03:38;97169.00;;;9.65;100.00
43804;BME280;29430;52.924;-2.388;2023-03-12T20:08:34;97134.91;;;9.64;100.00
43804;BME280;29430;52.924;-2.388;2023-03-12T20:13:25;97115.72;;;9.61;100.00
43804;BME280;29430;52.924;-2.388;2023-03-12T20:18:17;97077.00;;;9.60;100.00
43804;BME280;29430;52.924;-2.388;2023-03-12T20:23:09;97067.56;;;9.58;100.00
43804;BME280;29430;52.924;-2.388;2023-03-12T20:28:00;97055.91;;;9.57;100.00
43804;BME280;29430;52.924;-2.388;2023-03-12T20:32:52;97074.59;;;9.54;100.00
43804;BME280;29430;52.924;-2.388;2023-03-12T20:37:44;97071.66;;;9.50;100.00
43804;BME280;29430;52.924;-2.388;2023-03-12T20:42:35;97052.94;;;9.54;100.00
43804;BME280;29430;52.924;-2.388;2023-03-12T20:47:27;97043.19;;;9.53;100.00
43804;BME280;29430;52.924;-2.388;2023-03-12T20:52:19;97026.44;;;9.50;100.00
43804;BME280;29430;52.924;-2.388;2023-03-12T20:57:10;97020.22;;;9.50;100.00
43804;BME280;29430;52.924;-2.388;2023-03-12T21:02:02;97010.78;;;9.47;100.00
43804;BME280;29430;52.924;-2.388;2023-03-12T21:06:53;97004.28;;;9.48;100.00
43804;BME280;29430;52.924;-2.388;2023-03-12T21:11:46;97000.47;;;9.55;100.00
43804;BME280;29430;52.924;-2.388;2023-03-12T21:16:38;96992.06;;;9.56;100.00
43804;BME280;29430;52.924;-2.388;2023-03-12T21:21:30;96979.84;;;9.59;100.00
43804;BME280;29430;52.924;-2.388;2023-03-12T21:26:22;96961.47;;;9.61;100.00
43804;BME280;29430;52.924;-2.388;2023-03-12T21:31:15;96953.06;;;9.62;100.00
43804;BME280;29430;52.924;-2.388;2023-03-12T21:36:09;96942.25;;;9.62;100.00
43804;BME280;29430;52.924;-2.388;2023-03-12T21:41:06;96952.50;;;9.65;100.00
43804;BME280;29430;52.924;-2.388;2023-03-12T21:46:06;96939.50;;;9.67;100.00
43804;BME280;29430;52.924;-2.388;2023-03-12T21:51:06;96917.28;;;9.71;100.00
43804;BME280;29430;52.924;-2.388;2023-03-12T21:56:00;96902.13;;;9.70;100.00
43804;BME280;29430;52.924;-2.388;2023-03-12T22:01:05;96902.63;;;9.77;100.00
43804;BME280;29430;52.924;-2.388;2023-03-12T22:05:57;96893.94;;;9.80;100.00
43804;BME280;29430;52.924;-2.388;2023-03-12T22:10:48;96874.41;;;9.83;100.00
43804;BME280;29430;52.924;-2.388;2023-03-12T22:15:40;96869.53;;;9.85;100.00
43804;BME280;29430;52.924;-2.388;2023-03-12T22:20:32;96861.38;;;9.90;100.00
43804;BME280;29430;52.924;-2.388;2023-03-12T22:25:27;96840.50;;;9.91;100.00
43804;BME280;29430;52.924;-2.388;2023-03-12T22:30:19;96828.03;;;9.95;100.00
43804;BME280;29430;52.924;-2.388;2023-03-12T22:35:10;96807.97;;;9.96;100.00
43804;BME280;29430;52.924;-2.388;2023-03-12T22:40:02;96790.13;;;9.95;100.00
43804;BME280;29430;52.924;-2.388;2023-03-12T22:44:57;96788.44;;;9.99;100.00
43804;BME280;29430;52.924;-2.388;2023-03-12T22:49:49;96782.47;;;10.02;100.00
43804;BME280;29430;52.924;-2.388;2023-03-12T22:54:40;96763.75;;;10.06;100.00
43804;BME280;29430;52.924;-2.388;2023-03-12T22:59:32;96757.75;;;10.09;100.00
43804;BME280;29430;52.924;-2.388;2023-03-12T23:04:24;96754.75;;;10.10;100.00
43804;BME280;29430;52.924;-2.388;2023-03-12T23:09:16;96721.69;;;10.13;100.00
43804;BME280;29430;52.924;-2.388;2023-03-12T23:14:08;96714.06;;;10.15;100.00
43804;BME280;29430;52.924;-2.388;2023-03-12T23:18:59;96696.97;;;10.20;100.00
43804;BME280;29430;52.924;-2.388;2023-03-12T23:23:51;96697.16;;;10.24;100.00
43804;BME280;29430;52.924;-2.388;2023-03-12T23:28:43;96691.19;;;10.27;100.00
43804;BME280;29430;52.924;-2.388;2023-03-12T23:33:38;96672.47;;;10.30;100.00
43804;BME280;29430;52.924;-2.388;2023-03-12T23:38:30;96664.56;;;10.34;100.00
43804;BME280;29430;52.924;-2.388;2023-03-12T23:43:22;96659.06;;;10.39;100.00
43804;BME280;29430;52.924;-2.388;2023-03-12T23:48:13;96657.13;;;10.45;100.00
43804;BME280;29430;52.924;-2.388;2023-03-12T23:53:05;96651.59;;;10.50;100.00
43804;BME280;29430;52.924;-2.388;2023-03-12T23:57:57;96642.59;;;10.54;100.00
